sensor_id;sensor_type;location;lat;lon;timestamp;temperature;humidity
18506;DHT22;9382;53.242;10.438;2023-05-07T00:00:18;9.10;99.90
18506;DHT22;9382;53.242;10.438;2023-05-07T00:02:47;9.10;99.90
18506;DHT22;9382;53.242;10.438;2023-05-07T00:05:14;9.10;99.90
18506;DHT22;9382;53.242;10.438;2023-05-07T00:07:41;9.10;99.90
18506;DHT22;9382;53.242;10.438;2023-05-07T00:10:08;9.10;99.90
18506;DHT22;9382;53.242;10.438;2023-05-07T00:12:35;9.10;99.90
18506;DHT22;9382;53.242;10.438;2023-05-07T00:15:02;9.00;99.90
18506;DHT22;9382;53.242;10.438;2023-05-07T00:17:29;9.00;99.90
18506;DHT22;9382;53.242;10.438;2023-05-07T00:19:57;9.00;99.90
18506;DHT22;9382;53.242;10.438;2023-05-07T00:22:24;9.10;99.90
18506;DHT22;9382;53.242;10.438;2023-05-07T00:24:50;9.10;99.90
18506;DHT22;9382;53.242;10.438;2023-05-07T00:27:17;9.10;99.90
18506;DHT22;9382;53.242;10.438;2023-05-07T00:29:44;9.10;99.90
18506;DHT22;9382;53.242;10.438;2023-05-07T00:32:10;9.10;99.90
18506;DHT22;9382;53.242;10.438;2023-05-07T00:34:37;9.10;99.90
18506;DHT22;9382;53.242;10.438;2023-05-07T00:37:06;9.10;99.90
18506;DHT22;9382;53.242;10.438;2023-05-07T00:39:34;9.10;99.90
18506;DHT22;9382;53.242;10.438;2023-05-07T00:42:01;9.10;99.90
18506;DHT22;9382;53.242;10.438;2023-05-07T00:44:28;9.20;99.90
18506;DHT22;9382;53.242;10.438;2023-05-07T00:46:55;9.20;99.90
18506;DHT22;9382;53.242;10.438;2023-05-07T00:49:25;9.20;99.90
18506;DHT22;9382;53.242;10.438;2023-05-07T00:51:53;9.20;99.90
18506;DHT22;9382;53.242;10.438;2023-05-07T00:54:21;9.20;99.90
18506;DHT22;9382;53.242;10.438;2023-05-07T00:56:48;9.20;99.90
18506;DHT22;9382;53.242;10.438;2023-05-07T00:59:15;9.20;99.90
18506;DHT22;9382;53.242;10.438;2023-05-07T01:01:41;9.20;99.90
18506;DHT22;9382;53.242;10.438;2023-05-07T01:04:08;9.20;99.90
18506;DHT22;9382;53.242;10.438;2023-05-07T01:06:35;9.20;99.90
18506;DHT22;9382;53.242;10.438;2023-05-07T01:09:02;9.20;99.90
18506;DHT22;9382;53.242;10.438;2023-05-07T01:11:31;9.20;99.90
18506;DHT22;9382;53.242;10.438;2023-05-07T01:13:59;9.20;99.90
18506;DHT22;9382;53.242;10.438;2023-05-07T01:16:26;9.20;99.90
18506;DHT22;9382;53.242;10.438;2023-05-07T01:18:53;9.20;99.90
18506;DHT22;9382;53.242;10.438;2023-05-07T01:21:25;9.20;99.90
18506;DHT22;9382;53.242;10.438;2023-05-07T01:23:54;9.20;99.90
18506;DHT22;9382;53.242;10.438;2023-05-07T01:26:23;9.20;99.90
18506;DHT22;9382;53.242;10.438;2023-05-07T01:28:49;9.20;99.90
18506;DHT22;9382;53.242;10.438;2023-05-07T01:31:17;9.20;99.90
18506;DHT22;9382;53.242;10.438;2023-05-07T01:33:44;9.20;99.90
18506;DHT22;9382;53.242;10.438;2023-05-07T01:36:13;9.20;99.90
18506;DHT22;9382;53.242;10.438;2023-05-07T01:38:41;9.20;99.90
18506;DHT22;9382;53.242;10.438;2023-05-07T01:41:10;9.20;99.90
18506;DHT22;9382;53.242;10.438;2023-05-07T01:43:37;9.20;99.90
18506;DHT22;9382;53.242;10.438;2023-05-07T01:46:04;9.10;99.90
18506;DHT22;9382;53.242;10.438;2023-05-07T01:48:32;9.10;99.90
18506;DHT22;9382;53.242;10.438;2023-05-07T01:51:00;9.10;99.90
18506;DHT22;9382;53.242;10.438;2023-05-07T01:53:28;9.10;99.90
18506;DHT22;9382;53.242;10.438;2023-05-07T01:55:54;9.10;99.90
18506;DHT22;9382;53.242;10.438;2023-05-07T01:58:22;9.10;99.90
18506;DHT22;9382;53.242;10.438;2023-05-07T02:00:49;9.10;99.90
18506;DHT22;9382;53.242;10.438;2023-05-07T02:03:15;9.10;99.90
18506;DHT22;9382;53.242;10.438;2023-05-07T02:05:42;9.10;99.90
18506;DHT22;9382;53.242;10.438;2023-05-07T02:08:18;9.10;99.90
18506;DHT22;9382;53.242;10.438;2023-05-07T02:10:45;9.10;99.90
18506;DHT22;9382;53.242;10.438;2023-05-07T02:13:12;9.10;99.90
18506;DHT22;9382;53.242;10.438;2023-05-07T02:15:41;9.10;99.90
18506;DHT22;9382;53.242;10.438;2023-05-07T02:18:08;9.10;99.90
18506;DHT22;9382;53.242;10.438;2023-05-07T02:20:35;9.00;99.90
18506;DHT22;9382;53.242;10.438;2023-05-07T02:23:02;9.00;99.90
18506;DHT22;9382;53.242;10.438;2023-05-07T02:25:28;9.10;99.90
18506;DHT22;9382;53.242;10.438;2023-05-07T02:27:55;9.10;99.90
18506;DHT22;9382;53.242;10.438;2023-05-07T02:30:22;9.10;99.90
18506;DHT22;9382;53.242;10.438;2023-05-07T02:32:50;9.00;99.90
18506;DHT22;9382;53.242;10.438;2023-05-07T02:35:17;9.00;99.90
18506;DHT22;9382;53.242;10.438;2023-05-07T02:37:43;9.00;99.90
18506;DHT22;9382;53.242;10.438;2023-05-07T02:40:11;9.10;99.90
18506;DHT22;9382;53.242;10.438;2023-05-07T02:42:38;9.10;99.90
18506;DHT22;9382;53.242;10.438;2023-05-07T02:45:05;9.10;99.90
18506;DHT22;9382;53.242;10.438;2023-05-07T02:47:32;9.10;99.90
18506;DHT22;9382;53.242;10.438;2023-05-07T02:50:00;9.10;99.90
18506;DHT22;9382;53.242;10.438;2023-05-07T02:52:27;9.10;99.90
18506;DHT22;9382;53.242;10.438;2023-05-07T02:54:53;9.10;99.90
18506;DHT22;9382;53.242;10.438;2023-05-07T02:57:20;9.10;99.90
18506;DHT22;9382;53.242;10.438;2023-05-07T02:59:47;9.00;99.90
18506;DHT22;9382;53.242;10.438;2023-05-07T03:02:13;9.00;99.90
18506;DHT22;9382;53.242;10.438;2023-05-07T03:04:40;9.00;99.90
18506;DHT22;9382;53.242;10.438;2023-05-07T03:07:08;9.00;99.90
18506;DHT22;9382;53.242;10.438;2023-05-07T03:09:35;9.00;99.90
18506;DHT22;9382;53.242;10.438;2023-05-07T03:12:01;9.00;99.90
18506;DHT22;9382;53.242;10.438;2023-05-07T03:14:28;9.00;99.90
18506;DHT22;9382;53.242;10.438;2023-05-07T03:16:55;9.00;99.90
18506;DHT22;9382;53.242;10.438;2023-05-07T03:19:22;9.00;99.90
18506;DHT22;9382;53.242;10.438;2023-05-07T03:21:48;9.00;99.90
18506;DHT22;9382;53.242;10.438;2023-05-07T03:24:16;9.00;99.90
18506;DHT22;9382;53.242;10.438;2023-05-07T03:26:43;9.00;99.90
18506;DHT22;9382;53.242;10.438;2023-05-07T03:29:09;9.00;99.90
18506;DHT22;9382;53.242;10.438;2023-05-07T03:31:36;9.10;99.90
18506;DHT22;9382;53.242;10.438;2023-05-07T03:34:03;9.10;99.90
18506;DHT22;9382;53.242;10.438;2023-05-07T03:36:30;9.10;99.90
18506;DHT22;9382;53.242;10.438;2023-05-07T03:38:57;9.10;99.90
18506;DHT22;9382;53.242;10.438;2023-05-07T03:41:25;9.10;99.90
18506;DHT22;9382;53.242;10.438;2023-05-07T03:43:52;9.10;99.90
18506;DHT22;9382;53.242;10.438;2023-05-07T03:46:18;9.10;99.90
18506;DHT22;9382;53.242;10.438;2023-05-07T03:48:45;9.10;99.90
18506;DHT22;9382;53.242;10.438;2023-05-07T03:51:11;9.10;99.90
18506;DHT22;9382;53.242;10.438;2023-05-07T03:53:38;9.10;99.90
18506;DHT22;9382;53.242;10.438;2023-05-07T03:56:05;9.10;99.90
18506;DHT22;9382;53.242;10.438;2023-05-07T03:58:33;9.10;99.90
18506;DHT22;9382;53.242;10.438;2023-05-07T04:01:00;9.10;99.90
18506;DHT22;9382;53.242;10.438;2023-05-07T04:03:26;9.10;99.90
18506;DHT22;9382;53.242;10.438;2023-05-07T04:05:53;9.10;99.90
18506;DHT22;9382;53.242;10.438;2023-05-07T04:08:20;9.20;99.90
18506;DHT22;9382;53.242;10.438;2023-05-07T04:10:46;9.20;99.90
18506;DHT22;9382;53.242;10.438;2023-05-07T04:13:13;9.20;99.90
18506;DHT22;9382;53.242;10.438;2023-05-07T04:15:41;9.20;99.90
18506;DHT22;9382;53.242;10.438;2023-05-07T04:18:08;9.20;99.90
18506;DHT22;9382;53.242;10.438;2023-05-07T04:20:35;9.20;99.90
18506;DHT22;9382;53.242;10.438;2023-05-07T04:23:02;9.10;99.90
18506;DHT22;9382;53.242;10.438;2023-05-07T04:25:29;9.20;99.90
18506;DHT22;9382;53.242;10.438;2023-05-07T04:27:56;9.20;99.90
18506;DHT22;9382;53.242;10.438;2023-05-07T04:30:22;9.20;99.90
18506;DHT22;9382;53.242;10.438;2023-05-07T04:32:50;9.20;99.90
18506;DHT22;9382;53.242;10.438;2023-05-07T04:35:17;9.20;99.90
18506;DHT22;9382;53.242;10.438;2023-05-07T04:37:44;9.20;99.90
18506;DHT22;9382;53.242;10.438;2023-05-07T04:40:11;9.20;99.90
18506;DHT22;9382;53.242;10.438;2023-05-07T04:42:37;9.30;99.90
18506;DHT22;9382;53.242;10.438;2023-05-07T04:45:05;9.30;99.90
18506;DHT22;9382;53.242;10.438;2023-05-07T04:47:31;9.30;99.90
18506;DHT22;9382;53.242;10.438;2023-05-07T04:50:00;9.30;99.90
18506;DHT22;9382;53.242;10.438;2023-05-07T04:52:26;9.40;99.90
18506;DHT22;9382;53.242;10.438;2023-05-07T04:54:53;9.40;99.90
18506;DHT22;9382;53.242;10.438;2023-05-07T04:57:20;9.40;99.90
18506;DHT22;9382;53.242;10.438;2023-05-07T04:59:46;9.40;99.90
18506;DHT22;9382;53.242;10.438;2023-05-07T05:02:13;9.40;99.90
18506;DHT22;9382;53.242;10.438;2023-05-07T05:04:39;9.40;99.90
18506;DHT22;9382;53.242;10.438;2023-05-07T05:07:07;9.40;99.90
18506;DHT22;9382;53.242;10.438;2023-05-07T05:09:34;9.40;99.90
18506;DHT22;9382;53.242;10.438;2023-05-07T05:12:01;9.40;99.90
18506;DHT22;9382;53.242;10.438;2023-05-07T05:14:27;9.40;99.90
18506;DHT22;9382;53.242;10.438;2023-05-07T05:16:54;9.40;99.90
18506;DHT22;9382;53.242;10.438;2023-05-07T05:19:20;9.40;99.90
18506;DHT22;9382;53.242;10.438;2023-05-07T05:21:47;9.50;99.90
18506;DHT22;9382;53.242;10.438;2023-05-07T05:24:15;9.50;99.90
18506;DHT22;9382;53.242;10.438;2023-05-07T05:26:41;9.50;99.90
18506;DHT22;9382;53.242;10.438;2023-05-07T05:29:08;9.40;99.90
18506;DHT22;9382;53.242;10.438;2023-05-07T05:31:35;9.50;99.90
18506;DHT22;9382;53.242;10.438;2023-05-07T05:34:02;9.50;99.90
18506;DHT22;9382;53.242;10.438;2023-05-07T05:36:29;9.50;99.90
18506;DHT22;9382;53.242;10.438;2023-05-07T05:38:55;9.50;99.90
18506;DHT22;9382;53.242;10.438;2023-05-07T05:41:24;9.50;99.90
18506;DHT22;9382;53.242;10.438;2023-05-07T05:43:50;9.60;99.90
18506;DHT22;9382;53.242;10.438;2023-05-07T05:46:17;9.60;99.90
18506;DHT22;9382;53.242;10.438;2023-05-07T05:48:43;9.70;99.90
18506;DHT22;9382;53.242;10.438;2023-05-07T05:51:10;9.70;99.90
18506;DHT22;9382;53.242;10.438;2023-05-07T05:53:37;9.70;99.90
18506;DHT22;9382;53.242;10.438;2023-05-07T05:56:04;9.70;99.90
18506;DHT22;9382;53.242;10.438;2023-05-07T05:58:32;9.70;99.90
18506;DHT22;9382;53.242;10.438;2023-05-07T06:00:58;9.70;99.90
18506;DHT22;9382;53.242;10.438;2023-05-07T06:03:27;9.70;99.90
18506;DHT22;9382;53.242;10.438;2023-05-07T06:05:54;9.80;99.90
18506;DHT22;9382;53.242;10.438;2023-05-07T06:08:21;9.70;99.90
18506;DHT22;9382;53.242;10.438;2023-05-07T06:10:47;9.80;99.90
18506;DHT22;9382;53.242;10.438;2023-05-07T06:13:14;9.80;99.90
18506;DHT22;9382;53.242;10.438;2023-05-07T06:15:42;9.80;99.90
18506;DHT22;9382;53.242;10.438;2023-05-07T06:18:17;9.80;99.90
18506;DHT22;9382;53.242;10.438;2023-05-07T06:20:44;9.80;99.90
18506;DHT22;9382;53.242;10.438;2023-05-07T06:23:11;9.80;99.90
18506;DHT22;9382;53.242;10.438;2023-05-07T06:25:38;9.90;99.90
18506;DHT22;9382;53.242;10.438;2023-05-07T06:28:05;9.90;99.90
18506;DHT22;9382;53.242;10.438;2023-05-07T06:30:33;9.90;99.90
18506;DHT22;9382;53.242;10.438;2023-05-07T06:33:02;9.90;99.90
18506;DHT22;9382;53.242;10.438;2023-05-07T06:35:28;9.90;99.90
18506;DHT22;9382;53.242;10.438;2023-05-07T06:37:55;10.00;99.90
18506;DHT22;9382;53.242;10.438;2023-05-07T06:40:22;10.00;99.90
18506;DHT22;9382;53.242;10.438;2023-05-07T06:42:48;10.00;99.90
18506;DHT22;9382;53.242;10.438;2023-05-07T06:45:15;10.00;99.90
18506;DHT22;9382;53.242;10.438;2023-05-07T06:47:42;10.10;99.90
18506;DHT22;9382;53.242;10.438;2023-05-07T06:50:10;10.10;99.90
18506;DHT22;9382;53.242;10.438;2023-05-07T06:52:37;10.10;99.90
18506;DHT22;9382;53.242;10.438;2023-05-07T06:55:04;10.10;99.90
18506;DHT22;9382;53.242;10.438;2023-05-07T06:57:31;10.10;99.90
18506;DHT22;9382;53.242;10.438;2023-05-07T06:59:58;10.10;99.90
18506;DHT22;9382;53.242;10.438;2023-05-07T07:02:25;10.20;99.90
18506;DHT22;9382;53.242;10.438;2023-05-07T07:04:51;10.20;99.90
18506;DHT22;9382;53.242;10.438;2023-05-07T07:07:27;10.20;99.90
18506;DHT22;9382;53.242;10.438;2023-05-07T07:09:53;10.20;99.90
18506;DHT22;9382;53.242;10.438;2023-05-07T07:12:20;10.20;99.90
18506;DHT22;9382;53.242;10.438;2023-05-07T07:14:48;10.30;99.90
18506;DHT22;9382;53.242;10.438;2023-05-07T07:17:14;10.30;99.90
18506;DHT22;9382;53.242;10.438;2023-05-07T07:19:41;10.30;99.90
18506;DHT22;9382;53.242;10.438;2023-05-07T07:22:08;10.40;99.90
18506;DHT22;9382;53.242;10.438;2023-05-07T07:24:36;10.40;99.90
18506;DHT22;9382;53.242;10.438;2023-05-07T07:27:03;10.40;99.90
18506;DHT22;9382;53.242;10.438;2023-05-07T07:29:30;10.40;99.90
18506;DHT22;9382;53.242;10.438;2023-05-07T07:31:57;10.50;99.90
18506;DHT22;9382;53.242;10.438;2023-05-07T07:34:23;10.50;99.90
18506;DHT22;9382;53.242;10.438;2023-05-07T07:36:50;10.60;99.90
18506;DHT22;9382;53.242;10.438;2023-05-07T07:39:17;10.60;99.90
18506;DHT22;9382;53.242;10.438;2023-05-07T07:41:45;10.60;99.90
18506;DHT22;9382;53.242;10.438;2023-05-07T07:44:12;10.80;99.90
18506;DHT22;9382;53.242;10.438;2023-05-07T07:46:38;10.90;99.90
18506;DHT22;9382;53.242;10.438;2023-05-07T07:49:05;10.90;99.90
18506;DHT22;9382;53.242;10.438;2023-05-07T07:51:32;10.90;99.90
18506;DHT22;9382;53.242;10.438;2023-05-07T07:53:59;10.90;99.90
18506;DHT22;9382;53.242;10.438;2023-05-07T07:56:27;10.90;99.90
18506;DHT22;9382;53.242;10.438;2023-05-07T07:58:55;10.90;99.90
18506;DHT22;9382;53.242;10.438;2023-05-07T08:01:22;11.00;99.90
18506;DHT22;9382;53.242;10.438;2023-05-07T08:03:49;11.10;99.90
18506;DHT22;9382;53.242;10.438;2023-05-07T08:06:16;11.10;99.90
18506;DHT22;9382;53.242;10.438;2023-05-07T08:08:43;11.10;99.90
18506;DHT22;9382;53.242;10.438;2023-05-07T08:11:10;11.10;99.90
18506;DHT22;9382;53.242;10.438;2023-05-07T08:13:38;11.20;99.90
18506;DHT22;9382;53.242;10.438;2023-05-07T08:16:06;11.10;99.90
18506;DHT22;9382;53.242;10.438;2023-05-07T08:18:33;11.10;99.90
18506;DHT22;9382;53.242;10.438;2023-05-07T08:21:00;11.10;99.90
18506;DHT22;9382;53.242;10.438;2023-05-07T08:23:27;11.10;99.90
18506;DHT22;9382;53.242;10.438;2023-05-07T08:25:54;11.20;99.90
18506;DHT22;9382;53.242;10.438;2023-05-07T08:28:21;11.20;99.90
18506;DHT22;9382;53.242;10.438;2023-05-07T08:30:50;11.30;99.90
18506;DHT22;9382;53.242;10.438;2023-05-07T08:33:18;11.30;99.90
18506;DHT22;9382;53.242;10.438;2023-05-07T08:35:44;11.50;99.90
18506;DHT22;9382;53.242;10.438;2023-05-07T08:38:11;11.50;99.90
18506;DHT22;9382;53.242;10.438;2023-05-07T08:40:39;11.60;99.90
18506;DHT22;9382;53.242;10.438;2023-05-07T08:43:06;11.60;99.90
18506;DHT22;9382;53.242;10.438;2023-05-07T08:45:34;11.70;99.90
18506;DHT22;9382;53.242;10.438;2023-05-07T08:48:02;11.60;99.90
18506;DHT22;9382;53.242;10.438;2023-05-07T08:50:31;11.70;99.90
18506;DHT22;9382;53.242;10.438;2023-05-07T08:52:58;11.60;99.90
18506;DHT22;9382;53.242;10.438;2023-05-07T08:55:25;11.50;99.90
18506;DHT22;9382;53.242;10.438;2023-05-07T08:57:52;11.60;99.90
18506;DHT22;9382;53.242;10.438;2023-05-07T09:00:19;11.70;99.90
18506;DHT22;9382;53.242;10.438;2023-05-07T09:02:46;11.90;99.90
18506;DHT22;9382;53.242;10.438;2023-05-07T09:05:13;12.00;99.90
18506;DHT22;9382;53.242;10.438;2023-05-07T09:07:41;12.00;99.90
18506;DHT22;9382;53.242;10.438;2023-05-07T09:10:08;12.00;99.90
18506;DHT22;9382;53.242;10.438;2023-05-07T09:12:35;12.00;99.90
18506;DHT22;9382;53.242;10.438;2023-05-07T09:15:02;12.00;99.90
18506;DHT22;9382;53.242;10.438;2023-05-07T09:17:29;12.00;99.90
18506;DHT22;9382;53.242;10.438;2023-05-07T09:19:56;12.10;99.90
18506;DHT22;9382;53.242;10.438;2023-05-07T09:22:22;12.10;99.90
18506;DHT22;9382;53.242;10.438;2023-05-07T09:24:52;12.20;99.90
18506;DHT22;9382;53.242;10.438;2023-05-07T09:27:19;12.10;99.90
18506;DHT22;9382;53.242;10.438;2023-05-07T09:29:45;12.10;99.90
18506;DHT22;9382;53.242;10.438;2023-05-07T09:32:12;12.20;99.90
18506;DHT22;9382;53.242;10.438;2023-05-07T09:34:41;12.20;99.90
18506;DHT22;9382;53.242;10.438;2023-05-07T09:37:08;12.30;99.90
18506;DHT22;9382;53.242;10.438;2023-05-07T09:39:42;12.20;99.90
18506;DHT22;9382;53.242;10.438;2023-05-07T09:42:10;12.30;99.90
18506;DHT22;9382;53.242;10.438;2023-05-07T09:44:38;12.40;99.90
18506;DHT22;9382;53.242;10.438;2023-05-07T09:47:06;12.50;99.90
18506;DHT22;9382;53.242;10.438;2023-05-07T09:49:35;12.50;99.90
18506;DHT22;9382;53.242;10.438;2023-05-07T09:52:03;12.50;99.90
18506;DHT22;9382;53.242;10.438;2023-05-07T09:54:32;12.60;99.90
18506;DHT22;9382;53.242;10.438;2023-05-07T09:57:01;12.60;99.90
18506;DHT22;9382;53.242;10.438;2023-05-07T09:59:31;12.70;99.90
18506;DHT22;9382;53.242;10.438;2023-05-07T10:01:59;12.70;99.90
18506;DHT22;9382;53.242;10.438;2023-05-07T10:04:27;12.80;99.90
18506;DHT22;9382;53.242;10.438;2023-05-07T10:06:54;12.80;99.90
18506;DHT22;9382;53.242;10.438;2023-05-07T10:09:21;12.70;99.90
18506;DHT22;9382;53.242;10.438;2023-05-07T10:11:48;12.70;99.90
18506;DHT22;9382;53.242;10.438;2023-05-07T10:14:15;12.70;99.90
18506;DHT22;9382;53.242;10.438;2023-05-07T10:16:43;12.70;99.90
18506;DHT22;9382;53.242;10.438;2023-05-07T10:19:10;12.70;99.90
18506;DHT22;9382;53.242;10.438;2023-05-07T10:21:39;12.70;99.90
18506;DHT22;9382;53.242;10.438;2023-05-07T10:24:12;12.70;99.90
18506;DHT22;9382;53.242;10.438;2023-05-07T10:26:42;12.80;99.90
18506;DHT22;9382;53.242;10.438;2023-05-07T10:29:14;12.80;99.90
18506;DHT22;9382;53.242;10.438;2023-05-07T10:31:55;12.90;99.90
18506;DHT22;9382;53.242;10.438;2023-05-07T10:34:28;12.90;99.90
18506;DHT22;9382;53.242;10.438;2023-05-07T10:36:55;13.00;99.90
18506;DHT22;9382;53.242;10.438;2023-05-07T10:39:23;13.00;99.90
18506;DHT22;9382;53.242;10.438;2023-05-07T10:41:50;13.10;99.90
18506;DHT22;9382;53.242;10.438;2023-05-07T10:44:25;13.30;99.90
18506;DHT22;9382;53.242;10.438;2023-05-07T10:47:08;13.20;99.90
18506;DHT22;9382;53.242;10.438;2023-05-07T10:49:36;13.30;99.90
18506;DHT22;9382;53.242;10.438;2023-05-07T10:52:13;13.30;99.90
18506;DHT22;9382;53.242;10.438;2023-05-07T10:54:41;13.20;99.90
18506;DHT22;9382;53.242;10.438;2023-05-07T10:57:38;13.20;99.90
18506;DHT22;9382;53.242;10.438;2023-05-07T11:00:40;13.30;99.90
18506;DHT22;9382;53.242;10.438;2023-05-07T11:03:09;13.30;99.90
18506;DHT22;9382;53.242;10.438;2023-05-07T11:05:36;13.40;99.90
18506;DHT22;9382;53.242;10.438;2023-05-07T11:08:04;13.40;99.90
18506;DHT22;9382;53.242;10.438;2023-05-07T11:10:51;13.30;99.90
18506;DHT22;9382;53.242;10.438;2023-05-07T11:16:17;13.50;99.90
18506;DHT22;9382;53.242;10.438;2023-05-07T11:18:49;13.70;99.90
18506;DHT22;9382;53.242;10.438;2023-05-07T11:21:32;13.90;99.90
18506;DHT22;9382;53.242;10.438;2023-05-07T11:24:00;14.00;99.90
18506;DHT22;9382;53.242;10.438;2023-05-07T11:26:29;14.20;99.90
18506;DHT22;9382;53.242;10.438;2023-05-07T11:28:57;14.50;99.90
18506;DHT22;9382;53.242;10.438;2023-05-07T11:31:27;14.80;99.90
18506;DHT22;9382;53.242;10.438;2023-05-07T11:33:57;15.20;99.90
18506;DHT22;9382;53.242;10.438;2023-05-07T11:36:24;15.50;99.90
18506;DHT22;9382;53.242;10.438;2023-05-07T11:38:51;15.80;99.90
18506;DHT22;9382;53.242;10.438;2023-05-07T11:41:18;16.00;99.90
18506;DHT22;9382;53.242;10.438;2023-05-07T11:43:54;16.30;99.90
18506;DHT22;9382;53.242;10.438;2023-05-07T11:46:22;16.40;99.90
18506;DHT22;9382;53.242;10.438;2023-05-07T11:48:48;16.50;99.90
18506;DHT22;9382;53.242;10.438;2023-05-07T11:51:20;16.40;99.90
18506;DHT22;9382;53.242;10.438;2023-05-07T11:53:47;16.30;99.90
18506;DHT22;9382;53.242;10.438;2023-05-07T11:56:15;16.60;99.90
18506;DHT22;9382;53.242;10.438;2023-05-07T11:58:43;16.80;99.90
18506;DHT22;9382;53.242;10.438;2023-05-07T12:01:11;16.90;99.90
18506;DHT22;9382;53.242;10.438;2023-05-07T12:03:40;16.90;99.90
18506;DHT22;9382;53.242;10.438;2023-05-07T12:06:09;16.40;99.90
18506;DHT22;9382;53.242;10.438;2023-05-07T12:08:38;15.90;99.90
18506;DHT22;9382;53.242;10.438;2023-05-07T12:11:07;15.80;99.90
18506;DHT22;9382;53.242;10.438;2023-05-07T12:13:35;15.80;99.90
18506;DHT22;9382;53.242;10.438;2023-05-07T12:16:02;16.00;99.90
18506;DHT22;9382;53.242;10.438;2023-05-07T12:18:30;16.60;99.90
18506;DHT22;9382;53.242;10.438;2023-05-07T12:20:57;17.30;99.90
18506;DHT22;9382;53.242;10.438;2023-05-07T12:23:25;17.80;99.90
18506;DHT22;9382;53.242;10.438;2023-05-07T12:25:54;18.20;99.90
18506;DHT22;9382;53.242;10.438;2023-05-07T12:28:20;19.40;99.90
18506;DHT22;9382;53.242;10.438;2023-05-07T12:30:48;20.20;99.90
18506;DHT22;9382;53.242;10.438;2023-05-07T12:33:17;20.40;99.90
18506;DHT22;9382;53.242;10.438;2023-05-07T12:35:44;20.50;99.90
18506;DHT22;9382;53.242;10.438;2023-05-07T12:38:12;20.90;99.90
18506;DHT22;9382;53.242;10.438;2023-05-07T12:40:41;21.70;99.90
18506;DHT22;9382;53.242;10.438;2023-05-07T12:43:15;22.10;99.90
18506;DHT22;9382;53.242;10.438;2023-05-07T12:45:42;21.70;99.90
18506;DHT22;9382;53.242;10.438;2023-05-07T12:48:10;21.60;99.90
18506;DHT22;9382;53.242;10.438;2023-05-07T12:50:37;21.30;99.90
18506;DHT22;9382;53.242;10.438;2023-05-07T12:53:04;21.20;99.90
18506;DHT22;9382;53.242;10.438;2023-05-07T12:55:31;22.20;99.90
18506;DHT22;9382;53.242;10.438;2023-05-07T12:58:00;23.20;99.90
18506;DHT22;9382;53.242;10.438;2023-05-07T13:00:36;24.20;99.90
18506;DHT22;9382;53.242;10.438;2023-05-07T13:03:03;25.00;99.90
18506;DHT22;9382;53.242;10.438;2023-05-07T13:05:30;25.60;99.90
18506;DHT22;9382;53.242;10.438;2023-05-07T13:07:57;25.50;99.90
18506;DHT22;9382;53.242;10.438;2023-05-07T13:10:25;25.80;99.90
18506;DHT22;9382;53.242;10.438;2023-05-07T13:12:52;26.50;99.90
18506;DHT22;9382;53.242;10.438;2023-05-07T13:15:19;26.70;99.90
18506;DHT22;9382;53.242;10.438;2023-05-07T13:17:47;26.80;99.90
18506;DHT22;9382;53.242;10.438;2023-05-07T13:20:14;27.00;99.90
18506;DHT22;9382;53.242;10.438;2023-05-07T13:22:41;26.80;99.90
18506;DHT22;9382;53.242;10.438;2023-05-07T13:25:08;27.00;99.90
18506;DHT22;9382;53.242;10.438;2023-05-07T13:27:35;27.20;97.90
18506;DHT22;9382;53.242;10.438;2023-05-07T13:30:03;27.50;99.10
18506;DHT22;9382;53.242;10.438;2023-05-07T13:32:30;27.70;97.50
18506;DHT22;9382;53.242;10.438;2023-05-07T13:34:58;27.30;99.40
18506;DHT22;9382;53.242;10.438;2023-05-07T13:37:24;27.30;96.00
18506;DHT22;9382;53.242;10.438;2023-05-07T13:39:51;27.20;95.90
18506;DHT22;9382;53.242;10.438;2023-05-07T13:42:18;27.50;96.00
18506;DHT22;9382;53.242;10.438;2023-05-07T13:44:44;27.70;94.10
18506;DHT22;9382;53.242;10.438;2023-05-07T13:47:11;27.70;93.40
18506;DHT22;9382;53.242;10.438;2023-05-07T13:49:38;27.50;94.10
18506;DHT22;9382;53.242;10.438;2023-05-07T13:52:06;27.00;93.20
18506;DHT22;9382;53.242;10.438;2023-05-07T13:54:33;26.10;93.80
18506;DHT22;9382;53.242;10.438;2023-05-07T13:56:59;26.00;94.10
18506;DHT22;9382;53.242;10.438;2023-05-07T13:59:27;25.60;95.30
18506;DHT22;9382;53.242;10.438;2023-05-07T14:01:53;25.20;94.40
18506;DHT22;9382;53.242;10.438;2023-05-07T14:04:21;24.30;95.00
18506;DHT22;9382;53.242;10.438;2023-05-07T14:06:47;23.20;96.90
18506;DHT22;9382;53.242;10.438;2023-05-07T14:09:15;23.00;97.10
18506;DHT22;9382;53.242;10.438;2023-05-07T14:11:42;23.30;97.10
18506;DHT22;9382;53.242;10.438;2023-05-07T14:14:09;23.60;97.50
18506;DHT22;9382;53.242;10.438;2023-05-07T14:16:37;24.00;97.30
18506;DHT22;9382;53.242;10.438;2023-05-07T14:19:03;24.40;99.90
18506;DHT22;9382;53.242;10.438;2023-05-07T14:21:30;24.60;97.10
18506;DHT22;9382;53.242;10.438;2023-05-07T14:23:57;24.80;96.90
18506;DHT22;9382;53.242;10.438;2023-05-07T14:26:26;25.50;96.50
18506;DHT22;9382;53.242;10.438;2023-05-07T14:28:53;25.60;97.00
18506;DHT22;9382;53.242;10.438;2023-05-07T14:31:22;25.40;97.90
18506;DHT22;9382;53.242;10.438;2023-05-07T14:33:49;25.60;96.60
18506;DHT22;9382;53.242;10.438;2023-05-07T14:36:16;26.60;96.70
18506;DHT22;9382;53.242;10.438;2023-05-07T14:38:43;27.00;95.70
18506;DHT22;9382;53.242;10.438;2023-05-07T14:41:10;27.50;94.30
18506;DHT22;9382;53.242;10.438;2023-05-07T14:43:38;28.20;94.70
18506;DHT22;9382;53.242;10.438;2023-05-07T14:46:04;29.50;93.10
18506;DHT22;9382;53.242;10.438;2023-05-07T14:48:31;30.40;90.30
18506;DHT22;9382;53.242;10.438;2023-05-07T14:50:58;30.90;90.00
18506;DHT22;9382;53.242;10.438;2023-05-07T14:53:25;31.20;87.20
18506;DHT22;9382;53.242;10.438;2023-05-07T14:55:51;31.40;87.10
18506;DHT22;9382;53.242;10.438;2023-05-07T14:58:18;31.40;80.20
18506;DHT22;9382;53.242;10.438;2023-05-07T15:00:46;31.40;83.50
18506;DHT22;9382;53.242;10.438;2023-05-07T15:03:13;31.70;86.50
18506;DHT22;9382;53.242;10.438;2023-05-07T15:05:40;31.30;81.80
18506;DHT22;9382;53.242;10.438;2023-05-07T15:08:07;30.30;79.60
18506;DHT22;9382;53.242;10.438;2023-05-07T15:10:35;28.50;86.00
18506;DHT22;9382;53.242;10.438;2023-05-07T15:13:06;27.40;88.70
18506;DHT22;9382;53.242;10.438;2023-05-07T15:15:33;26.80;87.70
18506;DHT22;9382;53.242;10.438;2023-05-07T15:18:01;26.40;89.60
18506;DHT22;9382;53.242;10.438;2023-05-07T15:20:28;26.20;90.00
18506;DHT22;9382;53.242;10.438;2023-05-07T15:22:55;27.30;86.70
18506;DHT22;9382;53.242;10.438;2023-05-07T15:25:22;28.60;84.30
18506;DHT22;9382;53.242;10.438;2023-05-07T15:27:49;29.10;82.70
18506;DHT22;9382;53.242;10.438;2023-05-07T15:30:17;28.80;83.20
18506;DHT22;9382;53.242;10.438;2023-05-07T15:32:45;29.20;84.60
18506;DHT22;9382;53.242;10.438;2023-05-07T15:35:13;30.10;82.90
18506;DHT22;9382;53.242;10.438;2023-05-07T15:37:40;30.70;79.80
18506;DHT22;9382;53.242;10.438;2023-05-07T15:40:08;30.60;79.00
18506;DHT22;9382;53.242;10.438;2023-05-07T15:42:35;29.40;77.50